Time;durP1;ratioP1;P1;durP2;ratioP2;P2;SDS_P1;SDS_P2;PMS_P1;PMS_P2;Temp;Humidity;BMP_temperature;BMP_pressure;BME280_temperature;BME280_humidity;BME280_pressure;Samples;Min_cycle;Max_cycle;Signal;HPM_P1;HPM_P2
2022/09/11 00:01:21;;;;;;;42.00;21.95;;;;;;;;;;4990389;28;20160;-60
2022/09/11 00:03:47;;;;;;;38.65;21.98;;;;;;;;;;4988660;28;20066;-60
2022/09/11 00:06:15;;;;;;;35.92;19.92;;;;;;;;;;4989166;28;20580;-60
2022/09/11 00:08:41;;;;;;;35.45;19.65;;;;;;;;;;4993321;28;20034;-60
2022/09/11 00:11:11;;;;;;;32.65;19.15;;;;;;;;;;4989231;28;20029;-61
2022/09/11 00:13:38;;;;;;;32.25;18.50;;;;;;;;;;4990337;28;20110;-61
2022/09/11 00:16:06;;;;;;;32.10;19.50;;;;;;;;;;4991318;28;20030;-61
2022/09/11 00:18:34;;;;;;;34.80;19.75;;;;;;;;;;4991708;28;20062;-61
2022/09/11 00:21:01;;;;;;;32.10;18.70;;;;;;;;;;4990137;28;20069;-61
2022/09/11 00:23:26;;;;;;;31.75;19.08;;;;;;;;;;4989664;28;20045;-61
2022/09/11 00:25:52;;;;;;;32.40;18.30;;;;;;;;;;4989153;28;20045;-60
2022/09/11 00:28:20;;;;;;;42.38;21.20;;;;;;;;;;4989262;28;20794;-60
2022/09/11 00:30:55;;;;;;;35.08;20.60;;;;;;;;;;4991845;28;20030;-62
2022/09/11 00:33:21;;;;;;;42.80;21.98;;;;;;;;;;4988318;28;20135;-61
2022/09/11 00:35:57;;;;;;;45.53;22.58;;;;;;;;;;4990983;28;20056;-61
2022/09/11 00:38:22;;;;;;;51.10;23.65;;;;;;;;;;4989959;28;20022;-62
2022/09/11 00:40:49;;;;;;;52.65;23.73;;;;;;;;;;4990969;28;20034;-61
2022/09/11 00:43:16;;;;;;;46.85;23.40;;;;;;;;;;4989282;28;20117;-61
2022/09/11 00:45:45;;;;;;;64.53;26.10;;;;;;;;;;4989332;28;20097;-60
2022/09/11 00:48:15;;;;;;;62.28;26.00;;;;;;;;;;4989747;28;20487;-61
2022/09/11 00:50:42;;;;;;;56.63;25.05;;;;;;;;;;4990524;28;20034;-61
2022/09/11 00:53:11;;;;;;;57.60;25.85;;;;;;;;;;4991628;28;20068;-61
2022/09/11 00:55:42;;;;;;;62.63;26.45;;;;;;;;;;4989137;28;20030;-60
2022/09/11 00:58:12;;;;;;;58.20;25.60;;;;;;;;;;4991048;28;20034;-61
2022/09/11 01:00:59;;;;;;;58.22;23.95;;;;;;;;;;4985942;28;20084;-63
2022/09/11 01:03:26;;;;;;;51.63;23.15;;;;;;;;;;4973725;28;20039;-61
2022/09/11 01:05:53;;;;;;;41.75;20.27;;;;;;;;;;4989305;28;20526;-61
2022/09/11 01:08:19;;;;;;;43.58;20.75;;;;;;;;;;4990488;28;20057;-61
2022/09/11 01:10:51;;;;;;;45.22;22.13;;;;;;;;;;4989191;28;20113;-61
2022/09/11 01:13:46;;;;;;;60.72;24.67;;;;;;;;;;4990390;28;20073;-60
2022/09/11 01:16:33;;;;;;;49.33;22.00;;;;;;;;;;4980871;28;20157;-60
2022/09/11 01:19:26;;;;;;;53.47;23.80;;;;;;;;;;4989904;28;20026;-61
2022/09/11 01:21:57;;;;;;;57.67;23.88;;;;;;;;;;4991445;28;20042;-60
2022/09/11 01:24:41;;;;;;;;;;;;;;;;;;4990464;28;20396;-60
2022/09/11 01:27:26;;;;;;;70.50;26.33;;;;;;;;;;4975430;28;19940;-60
2022/09/11 01:30:04;;;;;;;75.68;28.42;;;;;;;;;;4991890;28;20034;-60
2022/09/11 01:32:34;;;;;;;68.50;25.35;;;;;;;;;;4992129;28;20042;-61
2022/09/11 01:35:09;;;;;;;71.87;26.57;;;;;;;;;;4990271;28;20050;-62
2022/09/11 01:37:55;;;;;;;55.10;23.60;;;;;;;;;;4989111;28;20275;-62
2022/09/11 01:40:27;;;;;;;49.10;23.35;;;;;;;;;;4988303;28;20502;-61
2022/09/11 01:43:02;;;;;;;51.35;22.65;;;;;;;;;;4991349;28;20030;-62
2022/09/11 01:45:30;;;;;;;39.60;20.63;;;;;;;;;;4989015;28;20400;-61
2022/09/11 01:47:58;;;;;;;50.22;21.77;;;;;;;;;;4989492;28;20030;-62
2022/09/11 01:50:24;;;;;;;49.95;23.20;;;;;;;;;;4988951;28;20034;-61
2022/09/11 01:52:56;;;;;;;51.30;23.38;;;;;;;;;;4991417;28;20364;-62
2022/09/11 01:55:30;;;;;;;56.75;24.17;;;;;;;;;;4987685;28;20697;-61
2022/09/11 01:58:02;;;;;;;65.40;25.50;;;;;;;;;;4990591;28;20034;-62
2022/09/11 02:00:30;;;;;;;61.22;24.98;;;;;;;;;;4990597;28;20483;-61
2022/09/11 02:03:04;;;;;;;61.63;26.25;;;;;;;;;;4990568;28;20066;-61
2022/09/11 02:05:38;;;;;;;73.20;28.05;;;;;;;;;;4989275;28;20053;-60
2022/09/11 02:08:09;;;;;;;63.17;26.77;;;;;;;;;;4987188;28;20038;-61
2022/09/11 02:10:39;;;;;;;67.25;26.33;;;;;;;;;;4990869;28;20401;-61
2022/09/11 02:13:13;;;;;;;56.35;24.65;;;;;;;;;;4986366;28;20046;-61
2022/09/11 02:15:46;;;;;;;59.58;24.70;;;;;;;;;;4988233;28;20046;-61
2022/09/11 02:18:54;;;;;;;60.97;24.98;;;;;;;;;;4988487;28;20034;-61
2022/09/11 02:21:20;;;;;;;47.80;23.38;;;;;;;;;;4985482;28;20053;-61
2022/09/11 02:23:45;;;;;;;47.03;22.05;;;;;;;;;;4989284;28;20030;-60
2022/09/11 02:26:12;;;;;;;41.90;21.38;;;;;;;;;;4989838;28;20030;-60
2022/09/11 02:28:38;;;;;;;41.58;21.65;;;;;;;;;;4993161;28;20026;-61
2022/09/11 02:31:04;;;;;;;53.33;22.77;;;;;;;;;;4992948;28;20034;-61
2022/09/11 02:33:35;;;;;;;46.22;22.15;;;;;;;;;;4993014;28;20472;-61
2022/09/11 02:36:44;;;;;;;54.55;23.77;;;;;;;;;;4992839;28;20109;-62
2022/09/11 02:39:26;;;;;;;64.28;26.15;;;;;;;;;;4991157;28;20042;-61
2022/09/11 02:42:23;;;;;;;93.13;28.98;;;;;;;;;;4989189;28;20078;-60
2022/09/11 02:45:03;;;;;;;86.22;29.15;;;;;;;;;;4982868;28;20387;-61
2022/09/11 02:47:28;;;;;;;73.45;26.88;;;;;;;;;;4993305;28;20048;-61
2022/09/11 02:50:05;;;;;;;62.58;25.02;;;;;;;;;;4990867;28;20042;-61
2022/09/11 02:52:55;;;;;;;59.28;24.88;;;;;;;;;;4993149;28;20030;-60
2022/09/11 02:55:42;;;;;;;80.60;29.33;;;;;;;;;;4991000;28;20084;-61
2022/09/11 02:58:21;;;;;;;87.75;27.83;;;;;;;;;;4992355;28;20057;-61
2022/09/11 03:00:47;;;;;;;79.18;27.83;;;;;;;;;;4993580;28;20046;-61
2022/09/11 03:03:13;;;;;;;81.45;29.63;;;;;;;;;;4988632;28;20452;-61
2022/09/11 03:05:40;;;;;;;106.40;30.80;;;;;;;;;;4992495;28;20393;-61
2022/09/11 03:08:06;;;;;;;93.72;28.77;;;;;;;;;;4992092;28;20034;-61
2022/09/11 03:10:33;;;;;;;101.47;30.45;;;;;;;;;;4990392;28;20446;-60
2022/09/11 03:12:58;;;;;;;116.78;31.55;;;;;;;;;;4990041;28;20464;-61
2022/09/11 03:15:24;;;;;;;121.72;31.88;;;;;;;;;;4992440;28;20030;-60
2022/09/11 03:17:50;;;;;;;92.50;29.50;;;;;;;;;;4991476;28;20041;-61
2022/09/11 03:20:16;;;;;;;137.93;33.38;;;;;;;;;;4990882;28;20022;-61
2022/09/11 03:22:42;;;;;;;138.52;33.58;;;;;;;;;;4991518;28;20048;-60
2022/09/11 03:25:09;;;;;;;122.85;31.17;;;;;;;;;;4991614;28;20042;-61
2022/09/11 03:27:37;;;;;;;142.10;32.42;;;;;;;;;;4993946;28;20057;-60
2022/09/11 03:30:03;;;;;;;177.40;31.40;;;;;;;;;;4993174;28;20036;-61
2022/09/11 03:32:30;;;;;;;112.80;29.67;;;;;;;;;;4989595;28;20110;-60
2022/09/11 03:34:56;;;;;;;146.02;31.63;;;;;;;;;;4992215;28;20046;-60
2022/09/11 03:37:21;;;;;;;305.58;33.30;;;;;;;;;;4989404;28;20041;-60
2022/09/11 03:39:47;;;;;;;156.50;29.42;;;;;;;;;;4991166;28;20057;-60
2022/09/11 03:42:12;;;;;;;155.18;30.52;;;;;;;;;;4991179;28;20506;-60
2022/09/11 03:44:38;;;;;;;208.48;31.08;;;;;;;;;;4985907;28;20081;-60
2022/09/11 03:47:04;;;;;;;153.82;30.27;;;;;;;;;;4992684;28;20026;-60
2022/09/11 03:49:30;;;;;;;124.03;29.58;;;;;;;;;;4990905;28;20060;-60
2022/09/11 03:51:55;;;;;;;138.23;29.73;;;;;;;;;;4992665;28;20455;-62
2022/09/11 03:54:21;;;;;;;173.88;31.35;;;;;;;;;;4988237;28;20399;-61
2022/09/11 03:56:46;;;;;;;166.70;30.30;;;;;;;;;;4992926;28;20038;-61
2022/09/11 03:59:12;;;;;;;198.30;31.58;;;;;;;;;;4991920;28;20034;-61
2022/09/11 04:01:37;;;;;;;109.10;29.25;;;;;;;;;;4991656;28;20442;-61
2022/09/11 04:04:03;;;;;;;138.27;30.90;;;;;;;;;;4987565;28;20030;-62
2022/09/11 04:06:31;;;;;;;120.10;30.40;;;;;;;;;;4990520;28;20037;-61
2022/09/11 04:08:57;;;;;;;122.40;30.05;;;;;;;;;;4990693;28;20026;-61
2022/09/11 04:11:22;;;;;;;134.85;30.33;;;;;;;;;;4991715;28;20033;-61
2022/09/11 04:13:47;;;;;;;125.90;30.60;;;;;;;;;;4989940;28;20045;-61
2022/09/11 04:16:16;;;;;;;130.02;31.70;;;;;;;;;;4990121;28;20040;-61
2022/09/11 04:18:43;;;;;;;119.50;29.52;;;;;;;;;;4991361;28;20038;-61
2022/09/11 04:21:11;;;;;;;97.60;29.10;;;;;;;;;;4990217;28;20451;-60
2022/09/11 04:23:37;;;;;;;104.25;28.27;;;;;;;;;;4990806;28;20490;-61
2022/09/11 04:26:11;;;;;;;88.38;27.50;;;;;;;;;;4988510;28;20058;-61
2022/09/11 04:28:36;;;;;;;103.07;28.63;;;;;;;;;;4979322;28;20034;-61
2022/09/11 04:31:03;;;;;;;97.75;28.13;;;;;;;;;;4991491;28;20049;-60
2022/09/11 04:33:29;;;;;;;94.97;28.23;;;;;;;;;;4989944;28;20542;-61
2022/09/11 04:35:54;;;;;;;103.07;28.33;;;;;;;;;;4991006;28;20040;-61
2022/09/11 04:38:20;;;;;;;104.25;27.27;;;;;;;;;;4991978;28;20034;-60
2022/09/11 04:40:45;;;;;;;91.38;27.45;;;;;;;;;;4990113;28;20046;-60
2022/09/11 04:43:11;;;;;;;83.72;27.15;;;;;;;;;;4991740;28;20034;-61
2022/09/11 04:45:37;;;;;;;87.05;27.08;;;;;;;;;;4985538;28;20038;-61
2022/09/11 04:48:03;;;;;;;102.15;27.27;;;;;;;;;;4991476;28;20460;-61
2022/09/11 04:50:30;;;;;;;69.53;24.92;;;;;;;;;;4990074;28;20037;-61
2022/09/11 04:52:57;;;;;;;122.10;26.65;;;;;;;;;;4992072;28;20113;-59
2022/09/11 04:55:22;;;;;;;98.00;27.17;;;;;;;;;;4990570;28;20079;-59
2022/09/11 04:57:47;;;;;;;71.45;25.33;;;;;;;;;;4991812;28;20034;-59
2022/09/11 05:00:13;;;;;;;80.10;25.95;;;;;;;;;;4990786;28;20042;-59
2022/09/11 05:02:39;;;;;;;82.68;25.95;;;;;;;;;;4991176;28;20038;-59
2022/09/11 05:05:05;;;;;;;68.78;25.08;;;;;;;;;;4991286;28;20383;-59
2022/09/11 05:07:34;;;;;;;77.43;25.77;;;;;;;;;;4973986;28;20038;-59
2022/09/11 05:10:02;;;;;;;77.30;26.30;;;;;;;;;;4991541;28;20038;-61
2022/09/11 05:12:28;;;;;;;85.03;26.42;;;;;;;;;;4991745;28;20121;-60
2022/09/11 05:14:54;;;;;;;87.35;26.40;;;;;;;;;;4988031;28;20123;-61
2022/09/11 05:17:19;;;;;;;81.97;26.15;;;;;;;;;;4990182;28;20093;-61
2022/09/11 05:19:44;;;;;;;102.68;26.92;;;;;;;;;;4991373;28;20038;-60
2022/09/11 05:22:10;;;;;;;89.53;26.98;;;;;;;;;;4991540;28;20531;-61
2022/09/11 05:24:35;;;;;;;81.95;25.90;;;;;;;;;;4990012;28;20052;-60
2022/09/11 05:27:00;;;;;;;131.45;27.50;;;;;;;;;;4992120;28;20092;-60
2022/09/11 05:29:29;;;;;;;102.22;26.17;;;;;;;;;;4990450;28;20365;-60
2022/09/11 05:31:57;;;;;;;132.85;26.52;;;;;;;;;;4989809;28;20061;-60
2022/09/11 05:34:23;;;;;;;96.75;27.23;;;;;;;;;;4988700;28;20030;-60
2022/09/11 05:36:49;;;;;;;80.47;26.92;;;;;;;;;;4991839;28;20091;-60
2022/09/11 05:39:14;;;;;;;91.93;27.52;;;;;;;;;;4990785;28;20565;-60
2022/09/11 05:41:40;;;;;;;109.20;28.98;;;;;;;;;;4991643;28;20026;-61
2022/09/11 05:44:05;;;;;;;97.50;26.98;;;;;;;;;;4992004;28;20030;-62
2022/09/11 05:46:30;;;;;;;93.38;27.90;;;;;;;;;;4990486;28;20029;-62
2022/09/11 05:48:57;;;;;;;95.18;27.65;;;;;;;;;;4990124;28;20045;-62
2022/09/11 05:51:23;;;;;;;98.95;26.75;;;;;;;;;;4991326;28;20578;-62
2022/09/11 05:53:53;;;;;;;148.05;29.55;;;;;;;;;;4990628;28;20039;-61
2022/09/11 05:56:23;;;;;;;104.97;28.75;;;;;;;;;;4988511;28;20030;-61
2022/09/11 05:58:52;;;;;;;113.10;27.33;;;;;;;;;;4992050;28;20027;-61
2022/09/11 06:01:22;;;;;;;94.70;27.25;;;;;;;;;;4991797;28;20093;-61
2022/09/11 06:03:48;;;;;;;105.53;29.23;;;;;;;;;;4993014;28;20368;-60
2022/09/11 06:06:16;;;;;;;83.78;27.98;;;;;;;;;;4994818;28;20045;-60
2022/09/11 06:08:46;;;;;;;89.55;26.63;;;;;;;;;;4994500;28;20034;-61
2022/09/11 06:11:14;;;;;;;132.23;29.45;;;;;;;;;;4995590;28;20026;-61
2022/09/11 06:13:41;;;;;;;96.80;27.48;;;;;;;;;;4994836;28;20487;-62
2022/09/11 06:16:12;;;;;;;84.40;27.58;;;;;;;;;;4994990;28;20037;-62
2022/09/11 06:18:38;;;;;;;87.75;26.80;;;;;;;;;;4988077;28;20114;-60
2022/09/11 06:21:06;;;;;;;82.22;26.08;;;;;;;;;;4992122;28;20480;-61
2022/09/11 06:23:32;;;;;;;100.32;26.10;;;;;;;;;;4991762;28;20026;-60
2022/09/11 06:26:07;;;;;;;146.85;26.52;;;;;;;;;;4995258;28;20061;-60
2022/09/11 06:28:36;;;;;;;139.02;24.38;;;;;;;;;;4992724;28;20057;-60
2022/09/11 06:31:08;;;;;;;115.70;25.20;;;;;;;;;;4978174;28;20161;-61
2022/09/11 06:33:35;;;;;;;110.32;24.33;;;;;;;;;;4993566;28;20503;-60
2022/09/11 06:36:03;;;;;;;122.25;23.30;;;;;;;;;;4992424;28;20030;-61
2022/09/11 06:38:30;;;;;;;71.78;21.60;;;;;;;;;;4991850;28;20487;-61
2022/09/11 06:40:57;;;;;;;67.60;22.55;;;;;;;;;;4994597;28;20076;-62
2022/09/11 06:43:22;;;;;;;83.35;22.67;;;;;;;;;;4993362;28;20129;-61
2022/09/11 06:45:48;;;;;;;59.60;22.58;;;;;;;;;;4994139;28;20606;-61
2022/09/11 06:48:15;;;;;;;74.72;23.60;;;;;;;;;;4992847;28;20475;-61
2022/09/11 06:50:41;;;;;;;81.32;24.20;;;;;;;;;;4994033;28;20070;-62
2022/09/11 06:53:07;;;;;;;58.92;22.02;;;;;;;;;;4992151;28;20062;-61
2022/09/11 06:55:33;;;;;;;57.15;22.35;;;;;;;;;;4992989;28;20088;-61
2022/09/11 06:57:59;;;;;;;74.28;22.25;;;;;;;;;;4994115;28;20484;-62
2022/09/11 07:00:24;;;;;;;76.63;23.15;;;;;;;;;;4991648;28;20046;-61
2022/09/11 07:02:51;;;;;;;60.40;23.65;;;;;;;;;;4993521;28;20042;-61
2022/09/11 07:05:18;;;;;;;59.75;22.90;;;;;;;;;;4993744;28;20047;-61
2022/09/11 07:07:43;;;;;;;56.50;22.77;;;;;;;;;;4992725;28;20443;-61
2022/09/11 07:10:09;;;;;;;60.55;24.45;;;;;;;;;;4994099;28;20065;-61
2022/09/11 07:12:37;;;;;;;81.45;25.67;;;;;;;;;;4990457;28;20035;-61
2022/09/11 07:15:07;;;;;;;81.03;25.25;;;;;;;;;;4992553;28;20049;-62
2022/09/11 07:17:33;;;;;;;94.83;25.77;;;;;;;;;;4991463;28;20058;-61
2022/09/11 07:19:58;;;;;;;67.25;23.08;;;;;;;;;;4993727;28;20093;-61
2022/09/11 07:22:24;;;;;;;67.32;24.42;;;;;;;;;;4992112;28;20050;-60
2022/09/11 07:24:53;;;;;;;60.63;23.30;;;;;;;;;;4993171;28;20041;-60
2022/09/11 07:27:19;;;;;;;71.35;23.80;;;;;;;;;;4983094;28;20105;-61
2022/09/11 07:29:45;;;;;;;54.03;22.02;;;;;;;;;;4991227;28;20532;-61
2022/09/11 07:32:10;;;;;;;56.15;22.42;;;;;;;;;;4988268;28;20109;-61
2022/09/11 07:34:35;;;;;;;55.38;21.90;;;;;;;;;;4992611;28;20443;-61
2022/09/11 07:37:01;;;;;;;76.20;23.52;;;;;;;;;;4991681;28;20022;-61
2022/09/11 07:39:27;;;;;;;69.03;21.27;;;;;;;;;;4990041;28;20426;-61
2022/09/11 07:41:52;;;;;;;51.53;21.35;;;;;;;;;;4992603;28;20048;-60
2022/09/11 07:44:18;;;;;;;45.97;20.15;;;;;;;;;;4993683;28;20038;-61
2022/09/11 07:46:43;;;;;;;52.13;20.33;;;;;;;;;;4984424;28;20069;-61
2022/09/11 07:49:10;;;;;;;68.97;20.08;;;;;;;;;;4991113;28;20435;-61
2022/09/11 07:51:38;;;;;;;59.13;19.48;;;;;;;;;;4991702;28;20505;-61
2022/09/11 07:54:04;;;;;;;67.32;19.27;;;;;;;;;;4992922;28;20109;-60
2022/09/11 07:56:30;;;;;;;44.25;20.02;;;;;;;;;;4992307;28;20113;-60
2022/09/11 07:58:56;;;;;;;47.30;18.35;;;;;;;;;;4991516;28;20046;-61
2022/09/11 08:01:28;;;;;;;54.60;19.15;;;;;;;;;;4989938;28;20475;-61
2022/09/11 08:03:57;;;;;;;40.83;19.20;;;;;;;;;;4992488;28;20062;-60
2022/09/11 08:06:24;;;;;;;36.97;18.77;;;;;;;;;;4988077;28;20030;-61
2022/09/11 08:08:57;;;;;;;39.78;18.98;;;;;;;;;;4992969;28;20482;-60
2022/09/11 08:11:24;;;;;;;38.53;19.23;;;;;;;;;;4991793;28;20063;-60
2022/09/11 08:13:51;;;;;;;37.22;18.10;;;;;;;;;;4991837;28;20418;-62
2022/09/11 08:16:21;;;;;;;35.88;18.77;;;;;;;;;;4991275;28;20391;-61
2022/09/11 08:18:47;;;;;;;37.92;18.00;;;;;;;;;;4990829;28;20084;-61
2022/09/11 08:21:13;;;;;;;40.38;19.35;;;;;;;;;;4990614;28;20113;-60
2022/09/11 08:23:41;;;;;;;38.92;18.95;;;;;;;;;;4989818;28;20109;-62
2022/09/11 08:26:13;;;;;;;35.97;19.17;;;;;;;;;;4991196;28;20045;-62
2022/09/11 08:28:41;;;;;;;37.22;18.67;;;;;;;;;;4991497;28;20032;-61
2022/09/11 08:31:07;;;;;;;34.17;18.10;;;;;;;;;;4990868;28;20034;-61
2022/09/11 08:33:33;;;;;;;29.13;16.70;;;;;;;;;;4990391;28;20486;-61
2022/09/11 08:35:59;;;;;;;30.85;17.20;;;;;;;;;;4987777;28;20121;-60
2022/09/11 08:38:24;;;;;;;30.65;16.65;;;;;;;;;;4984253;28;20062;-61
2022/09/11 08:40:50;;;;;;;29.77;16.98;;;;;;;;;;4984092;28;20399;-60
2022/09/11 08:43:38;;;;;;;27.33;16.10;;;;;;;;;;4973100;28;20037;-60
2022/09/11 08:46:08;;;;;;;27.20;16.33;;;;;;;;;;4988400;28;20042;-61
2022/09/11 08:48:46;;;;;;;26.50;15.23;;;;;;;;;;4990520;28;20045;-61
2022/09/11 08:51:15;;;;;;;26.33;14.93;;;;;;;;;;4989451;28;20041;-60
2022/09/11 08:53:41;;;;;;;24.75;16.25;;;;;;;;;;4987822;28;20062;-61
2022/09/11 08:56:13;;;;;;;24.42;16.08;;;;;;;;;;4991989;28;20387;-60
2022/09/11 08:58:56;;;;;;;24.30;15.30;;;;;;;;;;4988136;28;20519;-61
2022/09/11 09:01:56;;;;;;;23.63;14.80;;;;;;;;;;4991383;28;20057;-60
2022/09/11 09:04:40;;;;;;;22.33;14.55;;;;;;;;;;4992341;28;20103;-61
2022/09/11 09:07:23;;;;;;;25.33;15.70;;;;;;;;;;4989942;28;20116;-61
2022/09/11 09:10:21;;;;;;;26.70;15.77;;;;;;;;;;4972454;28;20472;-61
2022/09/11 09:12:52;;;;;;;22.92;15.02;;;;;;;;;;4979655;28;20042;-61
2022/09/11 09:15:46;;;;;;;24.42;14.93;;;;;;;;;;4988194;28;20037;-62
2022/09/11 09:18:32;;;;;;;21.38;13.75;;;;;;;;;;4989906;28;20026;-61
2022/09/11 09:21:19;;;;;;;19.30;13.52;;;;;;;;;;4991833;28;20045;-61
2022/09/11 09:23:52;;;;;;;19.80;14.00;;;;;;;;;;4985556;28;20181;-61
2022/09/11 09:26:18;;;;;;;21.45;13.02;;;;;;;;;;4984834;28;20483;-62
2022/09/11 09:28:50;;;;;;;21.10;13.73;;;;;;;;;;4991237;28;20038;-61
2022/09/11 09:31:21;;;;;;;20.95;13.52;;;;;;;;;;4987434;28;20074;-62
2022/09/11 09:33:57;;;;;;;20.33;13.70;;;;;;;;;;4990077;28;20026;-61
2022/09/11 09:36:33;;;;;;;20.35;12.98;;;;;;;;;;4996181;28;20832;-61
2022/09/11 09:39:00;;;;;;;19.23;13.15;;;;;;;;;;4993266;28;20096;-61
2022/09/11 09:42:16;;;;;;;20.80;12.93;;;;;;;;;;4994584;28;20038;-61
2022/09/11 09:45:00;;;;;;;18.05;12.48;;;;;;;;;;4961890;28;20050;-61
2022/09/11 09:47:26;;;;;;;19.67;12.63;;;;;;;;;;4985964;28;20041;-61
2022/09/11 09:49:51;;;;;;;19.55;12.40;;;;;;;;;;4991796;28;20390;-61
2022/09/11 09:52:26;;;;;;;23.67;13.52;;;;;;;;;;4990453;28;20391;-62
2022/09/11 09:55:16;;;;;;;22.05;13.70;;;;;;;;;;4976657;28;20046;-61
2022/09/11 09:57:42;;;;;;;21.75;13.65;;;;;;;;;;4975385;28;20464;-61
2022/09/11 10:00:08;;;;;;;28.02;14.70;;;;;;;;;;4982070;28;20050;-61
2022/09/11 10:02:48;;;;;;;21.17;14.15;;;;;;;;;;4994840;28;20037;-61
2022/09/11 10:05:38;;;;;;;20.67;13.95;;;;;;;;;;4992438;28;20034;-61
2022/09/11 10:08:25;;;;;;;18.80;13.07;;;;;;;;;;4995802;28;20045;-61
2022/09/11 10:11:20;;;;;;;19.50;12.88;;;;;;;;;;4992094;28;20057;-60
2022/09/11 10:13:53;;;;;;;18.73;13.25;;;;;;;;;;4986875;28;20044;-61
2022/09/11 10:16:21;;;;;;;19.08;13.07;;;;;;;;;;4993038;28;20085;-60
2022/09/11 10:18:47;;;;;;;19.85;12.90;;;;;;;;;;4992437;28;20153;-60
2022/09/11 10:21:13;;;;;;;17.42;12.50;;;;;;;;;;4993100;28;20121;-61
2022/09/11 10:23:53;;;;;;;18.38;13.55;;;;;;;;;;4988265;28;20464;-61
2022/09/11 10:26:35;;;;;;;19.00;12.68;;;;;;;;;;4990531;28;20031;-61
2022/09/11 10:29:12;;;;;;;16.80;12.15;;;;;;;;;;4994226;28;20034;-61
2022/09/11 10:31:40;;;;;;;18.65;13.07;;;;;;;;;;4993049;28;20046;-61
2022/09/11 10:34:13;;;;;;;18.38;13.25;;;;;;;;;;4993219;28;20049;-61
2022/09/11 10:36:39;;;;;;;20.40;13.05;;;;;;;;;;4992040;28;20041;-60
2022/09/11 10:39:04;;;;;;;19.33;13.27;;;;;;;;;;4994890;28;20030;-61
2022/09/11 10:41:33;;;;;;;16.98;11.98;;;;;;;;;;4989119;28;20403;-60
2022/09/11 10:44:04;;;;;;;18.00;12.75;;;;;;;;;;4994193;28;20062;-60
2022/09/11 10:46:35;;;;;;;18.60;12.65;;;;;;;;;;4989485;28;20109;-61
2022/09/11 10:49:03;;;;;;;16.83;12.52;;;;;;;;;;4992393;28;20035;-61
2022/09/11 10:51:34;;;;;;;17.75;12.85;;;;;;;;;;4992069;28;20491;-61
2022/09/11 10:54:15;;;;;;;;;;;;;;;;;;4993727;28;20395;-60
2022/09/11 10:57:12;;;;;;;19.10;13.20;;;;;;;;;;4992979;28;19972;-60
2022/09/11 10:59:40;;;;;;;18.77;12.18;;;;;;;;;;4987782;28;20042;-60
2022/09/11 11:02:33;;;;;;;19.67;12.98;;;;;;;;;;4993332;28;20241;-62
2022/09/11 11:05:33;;;;;;;20.73;13.05;;;;;;;;;;4993154;28;20037;-61
2022/09/11 11:08:06;;;;;;;20.33;13.10;;;;;;;;;;4992902;28;20041;-62
2022/09/11 11:10:43;;;;;;;20.15;12.65;;;;;;;;;;4987733;28;20447;-60
2022/09/11 11:13:44;;;;;;;20.20;13.07;;;;;;;;;;4988620;28;20026;-61
2022/09/11 11:16:15;;;;;;;21.13;13.38;;;;;;;;;;4984596;28;20215;-61
2022/09/11 11:19:07;;;;;;;19.92;13.30;;;;;;;;;;4980973;28;20045;-61
2022/09/11 11:21:51;;;;;;;18.90;13.07;;;;;;;;;;4989430;28;20070;-61
2022/09/11 11:24:26;;;;;;;19.98;13.02;;;;;;;;;;4988131;28;20030;-61
2022/09/11 11:27:04;;;;;;;18.27;12.60;;;;;;;;;;4992278;28;20097;-60
2022/09/11 11:29:44;;;;;;;18.88;12.40;;;;;;;;;;4989140;28;20022;-60
2022/09/11 11:32:29;;;;;;;17.08;12.43;;;;;;;;;;4992925;28;20102;-61
2022/09/11 11:35:12;;;;;;;18.02;11.82;;;;;;;;;;4991766;28;20034;-60
2022/09/11 11:37:45;;;;;;;18.50;12.90;;;;;;;;;;4991685;28;20541;-61
2022/09/11 11:40:34;;;;;;;18.35;12.55;;;;;;;;;;4990757;28;20023;-63
2022/09/11 11:43:05;;;;;;;18.42;12.65;;;;;;;;;;4982060;28;20042;-63
2022/09/11 11:45:43;;;;;;;19.42;12.68;;;;;;;;;;4990227;28;20058;-63
2022/09/11 11:48:24;;;;;;;17.55;12.75;;;;;;;;;;4992772;28;20034;-63
2022/09/11 11:50:52;;;;;;;18.27;12.93;;;;;;;;;;4989756;28;20454;-63
2022/09/11 11:53:23;;;;;;;18.73;12.93;;;;;;;;;;4979896;28;20034;-63
2022/09/11 11:56:13;;;;;;;22.80;15.38;;;;;;;;;;4990973;28;20426;-63
2022/09/11 11:58:59;;;;;;;23.65;16.55;;;;;;;;;;4990572;28;20023;-63
2022/09/11 12:01:48;;;;;;;20.40;14.20;;;;;;;;;;4991901;28;20069;-63
2022/09/11 12:04:31;;;;;;;17.20;11.82;;;;;;;;;;4990369;28;20030;-63
2022/09/11 12:06:58;;;;;;;17.17;12.35;;;;;;;;;;4991475;28;21056;-63
2022/09/11 12:09:24;;;;;;;16.33;11.48;;;;;;;;;;4991553;28;20030;-63
2022/09/11 12:11:52;;;;;;;16.83;11.95;;;;;;;;;;4974144;28;20386;-63
2022/09/11 12:14:26;;;;;;;16.73;12.43;;;;;;;;;;4987820;28;20110;-63
2022/09/11 12:16:54;;;;;;;19.17;13.52;;;;;;;;;;4983516;28;20538;-63
2022/09/11 12:19:25;;;;;;;21.95;16.55;;;;;;;;;;5068461;28;20388;-63
2022/09/11 12:21:51;;;;;;;24.85;17.45;;;;;;;;;;5058624;28;20040;-63
2022/09/11 12:24:18;;;;;;;26.48;20.00;;;;;;;;;;5057687;28;20025;-64
2022/09/11 12:26:44;;;;;;;23.67;18.35;;;;;;;;;;5043822;28;20061;-64
2022/09/11 12:29:13;;;;;;;23.73;19.08;;;;;;;;;;5028387;28;20065;-63
2022/09/11 12:31:50;;;;;;;22.02;16.67;;;;;;;;;;5055268;28;20428;-64
2022/09/11 12:34:24;;;;;;;24.58;18.33;;;;;;;;;;5060518;28;20057;-63
2022/09/11 12:36:53;;;;;;;23.58;17.55;;;;;;;;;;5056856;28;20025;-63
2022/09/11 12:39:37;;;;;;;24.60;19.30;;;;;;;;;;5048468;28;20029;-60
2022/09/11 12:42:26;;;;;;;27.38;21.55;;;;;;;;;;5047588;28;20041;-61
2022/09/11 12:44:52;;;;;;;25.85;22.50;;;;;;;;;;5048406;28;20032;-61
2022/09/11 12:47:24;;;;;;;24.77;21.25;;;;;;;;;;5067313;28;20032;-61
2022/09/11 12:50:16;;;;;;;29.25;23.60;;;;;;;;;;5065283;28;20075;-60
2022/09/11 12:52:44;;;;;;;20.27;15.15;;;;;;;;;;5066929;28;20045;-61
2022/09/11 12:55:30;;;;;;;25.23;20.05;;;;;;;;;;5055769;28;20036;-61
2022/09/11 12:58:03;;;;;;;18.52;14.18;;;;;;;;;;5066709;28;20154;-61
2022/09/11 13:00:36;;;;;;;16.02;12.27;;;;;;;;;;5066562;28;20071;-61
2022/09/11 13:03:03;;;;;;;18.98;15.07;;;;;;;;;;5067435;28;20025;-61
2022/09/11 13:05:34;;;;;;;19.83;16.00;;;;;;;;;;5064874;28;20040;-61
2022/09/11 13:08:03;;;;;;;20.52;16.90;;;;;;;;;;5064161;28;20071;-61
2022/09/11 13:10:36;;;;;;;16.83;13.87;;;;;;;;;;5055114;28;20037;-61
2022/09/11 13:13:25;;;;;;;17.20;14.65;;;;;;;;;;5054638;28;20269;-61
2022/09/11 13:15:55;;;;;;;17.65;15.65;;;;;;;;;;5060099;28;20076;-61
2022/09/11 13:18:33;;;;;;;17.13;15.32;;;;;;;;;;5057392;28;20060;-61
2022/09/11 13:21:00;;;;;;;17.00;15.20;;;;;;;;;;5059341;28;20112;-61
2022/09/11 13:23:26;;;;;;;18.65;16.65;;;;;;;;;;5055319;28;20044;-61
2022/09/11 13:25:57;;;;;;;18.77;16.77;;;;;;;;;;5065601;28;20036;-61
2022/09/11 13:28:23;;;;;;;17.75;15.85;;;;;;;;;;5046683;28;20033;-61
2022/09/11 13:31:03;;;;;;;17.70;15.90;;;;;;;;;;5033633;28;20052;-61
2022/09/11 13:33:31;;;;;;;17.30;15.50;;;;;;;;;;5049393;28;20047;-61
2022/09/11 13:36:02;;;;;;;18.08;14.27;;;;;;;;;;5039418;28;20040;-60
2022/09/11 13:38:33;;;;;;;16.55;14.63;;;;;;;;;;5037793;28;20044;-61
2022/09/11 13:41:14;;;;;;;16.15;14.32;;;;;;;;;;5027987;28;20033;-61
2022/09/11 13:43:45;;;;;;;15.85;14.18;;;;;;;;;;5032594;28;20029;-62
2022/09/11 13:46:13;;;;;;;;;;;;;;;;;;5034116;28;20490;-60
2022/09/11 13:48:38;;;;;;;17.10;14.57;;;;;;;;;;5036457;28;19917;-60
2022/09/11 13:51:05;;;;;;;14.93;13.32;;;;;;;;;;5023510;28;20036;-60
2022/09/11 13:53:32;;;;;;;17.15;13.50;;;;;;;;;;5038027;28;20033;-60
2022/09/11 13:55:57;;;;;;;15.95;12.70;;;;;;;;;;5052074;28;20029;-61
2022/09/11 13:58:34;;;;;;;14.77;11.63;;;;;;;;;;5048983;28;20039;-61
2022/09/11 14:01:13;;;;;;;14.98;11.60;;;;;;;;;;5039932;28;20045;-60
2022/09/11 14:03:47;;;;;;;15.00;11.20;;;;;;;;;;5037124;28;20120;-61
2022/09/11 14:06:19;;;;;;;15.85;12.93;;;;;;;;;;5050005;28;20025;-60
2022/09/11 14:08:50;;;;;;;16.92;14.57;;;;;;;;;;5049155;28;20055;-60
2022/09/11 14:11:30;;;;;;;13.07;11.52;;;;;;;;;;5053687;28;20044;-60
2022/09/11 14:14:04;;;;;;;12.75;9.95;;;;;;;;;;5044336;28;20033;-61
2022/09/11 14:16:33;;;;;;;12.40;9.73;;;;;;;;;;5050859;28;20052;-62
2022/09/11 14:19:17;;;;;;;14.15;10.68;;;;;;;;;;5047329;28;20087;-61
2022/09/11 14:21:46;;;;;;;14.32;10.52;;;;;;;;;;5035391;28;20037;-60
2022/09/11 14:24:25;;;;;;;11.65;9.60;;;;;;;;;;5043985;28;20025;-61
2022/09/11 14:26:50;;;;;;;13.95;10.52;;;;;;;;;;5048334;28;20029;-61
2022/09/11 14:29:33;;;;;;;13.43;9.35;;;;;;;;;;5051631;28;20124;-61
2022/09/11 14:32:31;;;;;;;13.70;10.52;;;;;;;;;;5044412;28;20517;-61
2022/09/11 14:34:57;;;;;;;12.77;10.20;;;;;;;;;;5050852;28;20496;-60
2022/09/11 14:37:25;;;;;;;11.52;8.60;;;;;;;;;;5033834;28;20094;-60
2022/09/11 14:39:56;;;;;;;10.43;7.38;;;;;;;;;;5051163;28;20394;-60
2022/09/11 14:42:25;;;;;;;10.75;8.25;;;;;;;;;;5041435;28;20040;-60